SOCA

Details ICAO SOCA (CAY)
Name Cayenne-Felix Eboue Intl
Region French Guiana
Timezone America/Cayenne (UTC-3.0)
Plans Departing 615
Arriving 615
Stats Elevation 26 ft / 8 m (AMSL)
Location 4.820030° -52.361100°
Runways 1
Magnetic Variation 18.456° W
Sunrise 2021-05-16 09:16:57 UTC / 2021-05-16 06:16:57 Local
Sunset 2021-05-16 21:37:28 UTC / 2021-05-16 18:37:28 Local
Advertisement - Login to hide

Runways

ID Width Length Bearing (true/mag) Surface Threshold Overrun Markings Lighting
08 148 ft / 45 m 10,489 ft / 3,197 m 65.20° / 83.65° ASPHALT 0 ft / 0 m 0 ft / 0 m PREC-APP CENTERLINE EDGE THRESHOLD MALSR TDZ REIL-OMNI
26 148 ft / 45 m 10,489 ft / 3,197 m 245.20° / 263.66° ASPHALT 0 ft / 0 m 0 ft / 0 m APP CENTERLINE EDGE THRESHOLD REIL-OMNI

Map

Weather


0- 5 10 15 20 25 30 35+ Temperature / °C

Clouds and Precipitation
Forecast for 2021-03-22 12:00 UTC. Updated 2 months ago

Ground ~20,000 ft ~40,000 ft Winds

METAR

SOCA 162030Z AUTO 08008KT CAVOK 29/22 Q1011 TEMPO 4000 SHRA SCT012 BKN015TCU BKN020

TAF

TAF SOCA 161600Z 1618/1718 09006KT 9999 BKN030 BKN043 PROB40 TEMPO 1618/1718 4000 SHRA SCT012 BKN015TCU BKN020 BECMG 1623/1701 VRB02KT TEMPO 1703/1708 1000 MIFG SCT003 BKN015 FM171200 08004KT 9999 SCT023 BKN036

Frequencies

Tower 118.10 MHz Cayenne Tower
Recorded 132.20 MHz Cayenne ATIS
Approach 119.90 MHz Cayenne Approach
Warning: Do not use this data for real-world aviation or navigation. No guarantee of current accuracy is given.